createdAt,value
2017-08-03T00:00:02.512Z,0
2017-08-03T00:01:02.531Z,0
2017-08-03T00:02:02.254Z,0
2017-08-03T00:03:02.612Z,0
2017-08-03T00:04:02.643Z,0
2017-08-03T00:05:02.694Z,0
2017-08-03T00:06:02.412Z,0
2017-08-03T00:07:02.442Z,0
2017-08-03T00:08:02.459Z,0
2017-08-03T00:09:02.824Z,0
2017-08-03T00:10:02.851Z,0
2017-08-03T00:11:02.601Z,0
2017-08-03T00:12:02.614Z,0
2017-08-03T00:13:02.656Z,0
2017-08-03T00:14:03.001Z,0
2017-08-03T00:15:03.033Z,0
2017-08-03T00:16:03.077Z,0
2017-08-03T00:17:03.118Z,0
2017-08-03T00:18:03.166Z,0
2017-08-03T00:19:03.259Z,0
2017-08-03T00:20:03.359Z,0
2017-08-03T00:21:03.299Z,0
2017-08-03T00:22:02.999Z,0
2017-08-03T00:23:03.024Z,0
2017-08-03T00:24:03.378Z,0
2017-08-03T00:25:03.403Z,0
2017-08-03T00:26:03.449Z,0
2017-08-03T00:27:03.480Z,0
2017-08-03T00:28:03.526Z,0
2017-08-03T00:29:03.567Z,0
2017-08-03T00:30:03.276Z,0
2017-08-03T00:31:03.627Z,0
2017-08-03T00:32:03.380Z,0
2017-08-03T00:33:03.389Z,0
2017-08-03T00:34:03.740Z,0
2017-08-03T00:35:03.909Z,0
2017-08-03T00:36:03.515Z,0
2017-08-03T00:37:03.535Z,0
2017-08-03T00:38:03.964Z,0
2017-08-03T00:39:04.368Z,0
2017-08-03T00:40:04.098Z,0
2017-08-03T00:41:04.232Z,0
2017-08-03T00:42:04.243Z,0
2017-08-03T00:43:04.354Z,0
2017-08-03T00:44:04.694Z,0
2017-08-03T00:45:04.491Z,0
2017-08-03T00:46:04.421Z,0
2017-08-03T00:47:04.493Z,0
2017-08-03T00:48:04.839Z,0
2017-08-03T00:49:04.598Z,0
2017-08-03T00:50:04.974Z,0
2017-08-03T00:51:04.643Z,0
2017-08-03T00:52:04.376Z,0
2017-08-03T00:53:04.499Z,0
2017-08-03T00:54:05.505Z,0
2017-08-03T00:55:05.504Z,0
2017-08-03T00:56:05.552Z,0
2017-08-03T00:57:05.278Z,0
2017-08-03T00:58:05.322Z,0
2017-08-03T00:59:05.661Z,0
2017-08-03T01:00:05.150Z,0
2017-08-03T01:01:06.213Z,0
2017-08-03T01:02:06.249Z,0
2017-08-03T01:03:05.965Z,0
2017-08-03T01:04:06.024Z,0
2017-08-03T01:05:06.349Z,0
2017-08-03T01:06:05.768Z,0
2017-08-03T01:07:06.516Z,0
2017-08-03T01:08:06.869Z,0
2017-08-03T01:09:06.901Z,0
2017-08-03T01:10:06.669Z,0
2017-08-03T01:11:06.986Z,0
2017-08-03T01:12:07.013Z,0
2017-08-03T01:13:07.032Z,0
2017-08-03T01:14:07.088Z,0
2017-08-03T01:15:06.498Z,0
2017-08-03T01:16:07.551Z,0
2017-08-03T01:17:06.956Z,0
2017-08-03T01:18:07.720Z,0
2017-08-03T01:19:07.738Z,0
2017-08-03T01:20:08.100Z,0
2017-08-03T01:21:07.822Z,0
2017-08-03T01:22:07.545Z,0
2017-08-03T01:23:08.599Z,0
2017-08-03T01:24:08.332Z,0
2017-08-03T01:25:08.693Z,0
2017-08-03T01:26:08.457Z,0
2017-08-03T01:27:08.613Z,0
2017-08-03T01:28:09.678Z,0
2017-08-03T01:29:09.718Z,0
2017-08-03T01:30:09.810Z,0
2017-08-03T01:31:09.788Z,0
2017-08-03T01:32:09.823Z,0
2017-08-03T01:33:09.865Z,0
2017-08-03T01:34:09.588Z,0
2017-08-03T01:35:09.721Z,0
2017-08-03T01:36:09.971Z,0
2017-08-03T01:37:10.002Z,0
2017-08-03T01:38:09.722Z,0
2017-08-03T01:39:09.756Z,0
2017-08-03T01:40:09.903Z,0
2017-08-03T01:41:09.823Z,0
2017-08-03T01:42:10.203Z,0
2017-08-03T01:43:10.235Z,0
2017-08-03T01:44:09.933Z,0
2017-08-03T01:45:10.362Z,0
2017-08-03T01:46:10.384Z,0
2017-08-03T01:47:10.422Z,0
2017-08-03T01:48:10.755Z,0
2017-08-03T01:49:10.487Z,0
2017-08-03T01:50:10.836Z,0
2017-08-03T01:51:10.891Z,0
2017-08-03T01:52:10.923Z,0
2017-08-03T01:53:10.711Z,0
2017-08-03T01:54:10.740Z,0
2017-08-03T01:55:11.088Z,0
2017-08-03T01:56:10.879Z,0
2017-08-03T01:57:10.473Z,0
2017-08-03T01:58:11.000Z,0
2017-08-03T01:59:11.340Z,0
2017-08-03T02:00:10.996Z,0
2017-08-03T02:01:11.079Z,0
2017-08-03T02:02:10.829Z,0
2017-08-03T02:03:11.602Z,0
2017-08-03T02:04:11.655Z,0
2017-08-03T02:05:11.675Z,0
2017-08-03T02:06:11.749Z,0
2017-08-03T02:07:10.773Z,0
2017-08-03T02:08:11.935Z,0
2017-08-03T02:09:11.660Z,0
2017-08-03T02:10:11.592Z,0
2017-08-03T02:11:12.340Z,0
2017-08-03T02:12:11.720Z,0
2017-08-03T02:13:12.467Z,0
2017-08-03T02:14:12.858Z,0
2017-08-03T02:15:12.599Z,0
2017-08-03T02:16:13.330Z,0
2017-08-03T02:17:13.033Z,0
2017-08-03T02:18:13.082Z,0
2017-08-03T02:19:13.442Z,0
2017-08-03T02:20:13.161Z,0
2017-08-03T02:21:12.867Z,0
2017-08-03T02:22:13.927Z,0
2017-08-03T02:23:13.647Z,0
2017-08-03T02:24:13.690Z,0
2017-08-03T02:25:13.693Z,0
2017-08-03T02:26:14.068Z,0
2017-08-03T02:27:13.794Z,0
2017-08-03T02:28:14.124Z,0
2017-08-03T02:29:14.177Z,0
2017-08-03T02:30:13.942Z,0
2017-08-03T02:31:13.980Z,0
2017-08-03T02:32:13.972Z,0
2017-08-03T02:33:14.014Z,0
2017-08-03T02:34:14.366Z,0
2017-08-03T02:35:14.401Z,0
2017-08-03T02:36:14.431Z,0
2017-08-03T02:37:14.163Z,0
2017-08-03T02:38:14.532Z,0
2017-08-03T02:39:14.534Z,0
2017-08-03T02:40:14.264Z,0
2017-08-03T02:41:14.319Z,0
2017-08-03T02:42:14.641Z,0
2017-08-03T02:43:14.375Z,0
2017-08-03T02:44:14.728Z,0
2017-08-03T02:45:14.765Z,0
2017-08-03T02:46:14.466Z,0
2017-08-03T02:47:14.193Z,0
2017-08-03T02:48:15.246Z,0
2017-08-03T02:49:14.984Z,0
2017-08-03T02:50:15.324Z,0
2017-08-03T02:51:15.357Z,0
2017-08-03T02:52:15.076Z,0
2017-08-03T02:53:15.425Z,0
2017-08-03T02:54:15.475Z,0
2017-08-03T02:55:15.517Z,0
2017-08-03T02:56:14.909Z,0
2017-08-03T02:57:15.654Z,0
2017-08-03T02:58:15.399Z,0
2017-08-03T02:59:15.413Z,0
2017-08-03T03:00:15.675Z,0
2017-08-03T03:01:15.607Z,0
2017-08-03T03:02:15.505Z,0
2017-08-03T03:03:14.949Z,0
2017-08-03T03:04:16.005Z,0
2017-08-03T03:05:16.031Z,0
2017-08-03T03:06:15.746Z,0
2017-08-03T03:07:16.114Z,0
2017-08-03T03:08:15.844Z,0
2017-08-03T03:09:16.200Z,0
2017-08-03T03:10:16.224Z,0
2017-08-03T03:11:16.260Z,0
2017-08-03T03:12:16.280Z,0
2017-08-03T03:13:16.322Z,0
2017-08-03T03:14:16.380Z,0
2017-08-03T03:15:16.074Z,0
2017-08-03T03:16:15.800Z,0
2017-08-03T03:17:16.858Z,0
2017-08-03T03:18:16.888Z,0
2017-08-03T03:19:16.618Z,0
2017-08-03T03:20:16.980Z,0
2017-08-03T03:21:16.674Z,0
2017-08-03T03:22:16.715Z,0
2017-08-03T03:23:17.082Z,0
2017-08-03T03:24:16.794Z,0
2017-08-03T03:25:17.448Z,0
2017-08-03T03:26:17.184Z,0
2017-08-03T03:27:17.234Z,0
2017-08-03T03:28:17.254Z,0
2017-08-03T03:29:16.990Z,0
2017-08-03T03:30:17.345Z,0
2017-08-03T03:31:17.375Z,0
2017-08-03T03:32:17.097Z,5
2017-08-03T03:33:17.824Z,5
2017-08-03T03:34:17.865Z,5
2017-08-03T03:35:17.556Z,5
2017-08-03T03:36:17.917Z,5
2017-08-03T03:37:17.654Z,5
2017-08-03T03:38:17.999Z,5
2017-08-03T03:39:18.025Z,5
2017-08-03T03:40:17.769Z,5
2017-08-03T03:41:17.487Z,5
2017-08-03T03:42:18.547Z,5
2017-08-03T03:43:18.580Z,5
2017-08-03T03:44:18.305Z,5
2017-08-03T03:45:18.317Z,5
2017-08-03T03:46:18.687Z,10
2017-08-03T03:47:18.399Z,10
2017-08-03T03:48:18.450Z,10
2017-08-03T03:49:18.802Z,10
2017-08-03T03:50:18.526Z,10
2017-08-03T03:51:18.896Z,10
2017-08-03T03:52:18.607Z,10
2017-08-03T03:53:18.631Z,10
2017-08-03T03:54:18.989Z,10
2017-08-03T03:55:18.685Z,10
2017-08-03T03:56:19.056Z,15
2017-08-03T03:57:19.082Z,15
2017-08-03T03:58:19.130Z,15
2017-08-03T03:59:18.520Z,15
2017-08-03T04:00:20.321Z,15
2017-08-03T04:01:19.599Z,15
2017-08-03T04:02:19.352Z,15
2017-08-03T04:03:19.691Z,20
2017-08-03T04:04:19.398Z,20
2017-08-03T04:05:19.935Z,25
2017-08-03T04:06:19.800Z,30
2017-08-03T04:07:19.532Z,40
2017-08-03T04:08:19.544Z,45
2017-08-03T04:09:19.596Z,45
2017-08-03T04:10:19.942Z,50
2017-08-03T04:11:19.664Z,50
2017-08-03T04:12:19.686Z,55
2017-08-03T04:13:20.061Z,60
2017-08-03T04:14:20.096Z,65
2017-08-03T04:15:19.795Z,65
2017-08-03T04:16:20.171Z,65
2017-08-03T04:17:20.209Z,65
2017-08-03T04:18:20.229Z,65
2017-08-03T04:19:20.280Z,65
2017-08-03T04:20:20.005Z,65
2017-08-03T04:21:20.342Z,65
2017-08-03T04:22:20.391Z,65
2017-08-03T04:23:20.416Z,70
2017-08-03T04:24:20.160Z,70
2017-08-03T04:25:20.165Z,70
2017-08-03T04:26:20.901Z,70
2017-08-03T04:27:20.935Z,75
2017-08-03T04:28:20.972Z,75
2017-08-03T04:29:21.011Z,75
2017-08-03T04:30:20.732Z,75
2017-08-03T04:31:21.083Z,70
2017-08-03T04:32:21.124Z,70
2017-08-03T04:33:21.143Z,70
2017-08-03T04:34:21.190Z,65
2017-08-03T04:35:21.223Z,65
2017-08-03T04:36:20.950Z,60
2017-08-03T04:37:21.689Z,65
2017-08-03T04:38:21.408Z,65
2017-08-03T04:39:21.747Z,65
2017-08-03T04:40:21.781Z,70
2017-08-03T04:41:21.177Z,75
2017-08-03T04:42:22.234Z,75
2017-08-03T04:43:21.964Z,80
2017-08-03T04:44:22.314Z,80
2017-08-03T04:45:22.345Z,85
2017-08-03T04:46:22.460Z,80
2017-08-03T04:47:22.108Z,75
2017-08-03T04:48:22.459Z,75
2017-08-03T04:49:22.166Z,70
2017-08-03T04:50:22.582Z,65
2017-08-03T04:51:22.307Z,60
2017-08-03T04:52:22.343Z,55
2017-08-03T04:53:23.078Z,55
2017-08-03T04:54:23.101Z,50
2017-08-03T04:55:22.818Z,50
2017-08-03T04:56:23.181Z,55
2017-08-03T04:57:22.896Z,60
2017-08-03T04:58:23.234Z,65
2017-08-03T04:59:23.282Z,70
2017-08-03T05:00:23.011Z,80
2017-08-03T05:01:23.262Z,95
2017-08-03T05:02:23.468Z,110
2017-08-03T05:03:23.499Z,130
2017-08-03T05:04:23.534Z,145
2017-08-03T05:05:23.572Z,145
2017-08-03T05:06:23.919Z,140
2017-08-03T05:07:23.952Z,135
2017-08-03T05:08:24.000Z,125
2017-08-03T05:09:24.034Z,115
2017-08-03T05:10:23.740Z,100
2017-08-03T05:11:24.100Z,85
2017-08-03T05:12:23.834Z,75
2017-08-03T05:13:24.179Z,70
2017-08-03T05:14:23.924Z,75
2017-08-03T05:15:24.249Z,80
2017-08-03T05:16:23.668Z,95
2017-08-03T05:17:24.743Z,110
2017-08-03T05:18:24.764Z,125
2017-08-03T05:19:24.792Z,135
2017-08-03T05:20:24.839Z,145
2017-08-03T05:21:24.894Z,150
2017-08-03T05:22:24.597Z,150
2017-08-03T05:23:24.961Z,150
2017-08-03T05:24:24.680Z,150
2017-08-03T05:25:24.811Z,150
2017-08-03T05:26:25.053Z,155
2017-08-03T05:27:24.470Z,160
2017-08-03T05:28:25.531Z,165
2017-08-03T05:29:25.253Z,170
2017-08-03T05:30:25.301Z,175
2017-08-03T05:31:25.637Z,175
2017-08-03T05:32:25.686Z,180
2017-08-03T05:33:25.724Z,205
2017-08-03T05:34:25.442Z,240
2017-08-03T05:35:25.863Z,280
2017-08-03T05:36:25.897Z,295
2017-08-03T05:37:25.313Z,300
2017-08-03T05:38:25.773Z,295
2017-08-03T05:39:26.109Z,275
2017-08-03T05:40:26.153Z,250
2017-08-03T05:41:26.747Z,225
2017-08-03T05:42:26.215Z,210
2017-08-03T05:43:25.314Z,195
2017-08-03T05:44:26.364Z,225
2017-08-03T05:45:26.405Z,205
2017-08-03T05:46:26.149Z,190
2017-08-03T05:47:26.516Z,205
2017-08-03T05:48:26.219Z,215
2017-08-03T05:49:26.562Z,240
2017-08-03T05:50:26.288Z,265
2017-08-03T05:51:26.064Z,290
2017-08-03T05:52:26.416Z,320
2017-08-03T05:53:27.143Z,360
2017-08-03T05:54:27.519Z,390
2017-08-03T05:55:27.242Z,410
2017-08-03T05:56:27.978Z,430
2017-08-03T05:57:27.696Z,460
2017-08-03T05:58:28.044Z,510
2017-08-03T05:59:28.082Z,485
2017-08-03T06:00:27.809Z,455
2017-08-03T06:01:28.340Z,415
2017-08-03T06:02:28.192Z,375
2017-08-03T06:03:28.234Z,370
2017-08-03T06:04:27.641Z,330
2017-08-03T06:05:28.395Z,285
2017-08-03T06:06:28.429Z,270
2017-08-03T06:07:28.473Z,270
2017-08-03T06:08:29.208Z,280
2017-08-03T06:09:28.909Z,310
2017-08-03T06:10:29.623Z,335
2017-08-03T06:11:29.665Z,345
2017-08-03T06:12:29.396Z,365
2017-08-03T06:13:29.742Z,390
2017-08-03T06:14:29.788Z,465
2017-08-03T06:15:29.850Z,440
2017-08-03T06:16:29.557Z,525
2017-08-03T06:17:29.903Z,580
2017-08-03T06:18:29.927Z,625
2017-08-03T06:19:29.654Z,780
2017-08-03T06:20:29.750Z,715
2017-08-03T06:21:30.053Z,545
2017-08-03T06:22:30.084Z,660
2017-08-03T06:23:29.479Z,495
2017-08-03T06:24:30.582Z,500
2017-08-03T06:25:30.306Z,420
2017-08-03T06:26:30.820Z,380
2017-08-03T06:27:30.645Z,365
2017-08-03T06:28:30.690Z,345
2017-08-03T06:29:30.106Z,315
2017-08-03T06:30:31.206Z,355
2017-08-03T06:31:30.883Z,355
2017-08-03T06:32:31.241Z,295
2017-08-03T06:33:31.321Z,265
2017-08-03T06:34:31.314Z,250
2017-08-03T06:35:30.744Z,245
2017-08-03T06:36:31.804Z,255
2017-08-03T06:37:31.843Z,255
2017-08-03T06:38:31.885Z,265
2017-08-03T06:39:31.919Z,275
2017-08-03T06:40:32.439Z,275
2017-08-03T06:41:32.836Z,280
2017-08-03T06:42:32.409Z,275
2017-08-03T06:43:32.081Z,255
2017-08-03T06:44:32.182Z,235
2017-08-03T06:45:32.146Z,235
2017-08-03T06:46:31.864Z,230
2017-08-03T06:47:32.295Z,220
2017-08-03T06:48:32.446Z,210
2017-08-03T06:49:32.102Z,215
2017-08-03T06:50:32.344Z,230
2017-08-03T06:51:32.374Z,245
2017-08-03T06:52:32.426Z,275
2017-08-03T06:53:32.145Z,295
2017-08-03T06:54:32.474Z,305
2017-08-03T06:55:32.535Z,295
2017-08-03T06:56:31.958Z,300
2017-08-03T06:57:32.713Z,345
2017-08-03T06:58:33.058Z,385
2017-08-03T06:59:33.096Z,410
2017-08-03T07:00:32.825Z,435
2017-08-03T07:01:32.863Z,425
2017-08-03T07:02:33.212Z,410
2017-08-03T07:03:32.942Z,405
2017-08-03T07:04:32.955Z,355
2017-08-03T07:05:32.993Z,340
2017-08-03T07:06:33.032Z,335
2017-08-03T07:07:33.403Z,330
2017-08-03T07:08:33.116Z,340
2017-08-03T07:09:32.861Z,350
2017-08-03T07:10:33.626Z,355
2017-08-03T07:11:35.035Z,335
2017-08-03T07:12:33.803Z,325
2017-08-03T07:13:33.115Z,315
2017-08-03T07:14:34.906Z,305
2017-08-03T07:15:34.516Z,290
2017-08-03T07:16:34.549Z,270
2017-08-03T07:17:34.590Z,245
2017-08-03T07:18:34.622Z,230
2017-08-03T07:19:34.661Z,230
2017-08-03T07:20:34.400Z,250
2017-08-03T07:21:35.069Z,270
2017-08-03T07:22:35.181Z,270
2017-08-03T07:23:34.565Z,270
2017-08-03T07:24:34.696Z,280
2017-08-03T07:25:35.318Z,310
2017-08-03T07:26:35.489Z,350
2017-08-03T07:27:35.542Z,395
2017-08-03T07:28:35.558Z,430
2017-08-03T07:29:35.608Z,460
2017-08-03T07:30:35.315Z,500
2017-08-03T07:31:35.374Z,565
2017-08-03T07:32:35.416Z,620
2017-08-03T07:33:35.755Z,650
2017-08-03T07:34:35.803Z,545
2017-08-03T07:35:35.834Z,490
2017-08-03T07:36:35.873Z,455
2017-08-03T07:37:35.605Z,385
2017-08-03T07:38:35.943Z,380
2017-08-03T07:39:35.994Z,315
2017-08-03T07:40:35.697Z,275
2017-08-03T07:41:36.418Z,245
2017-08-03T07:42:36.460Z,220
2017-08-03T07:43:36.495Z,210
2017-08-03T07:44:36.531Z,200
2017-08-03T07:45:36.259Z,200
2017-08-03T07:46:36.312Z,220
2017-08-03T07:47:36.354Z,225
2017-08-03T07:48:36.687Z,240
2017-08-03T07:49:36.728Z,265
2017-08-03T07:50:36.455Z,320
2017-08-03T07:51:36.814Z,400
2017-08-03T07:52:36.860Z,395
2017-08-03T07:53:36.877Z,435
2017-08-03T07:54:36.954Z,415
2017-08-03T07:55:37.034Z,380
2017-08-03T07:56:36.693Z,380
2017-08-03T07:57:36.728Z,375
2017-08-03T07:58:37.079Z,360
2017-08-03T07:59:37.115Z,350
2017-08-03T08:00:36.846Z,335
2017-08-03T08:01:37.590Z,320
2017-08-03T08:02:37.321Z,295
2017-08-03T08:03:37.351Z,265
2017-08-03T08:04:37.715Z,255
2017-08-03T08:05:37.750Z,265
2017-08-03T08:06:37.782Z,275
2017-08-03T08:07:37.816Z,240
2017-08-03T08:08:37.854Z,210
2017-08-03T08:09:37.599Z,185
2017-08-03T08:10:38.335Z,210
2017-08-03T08:11:38.371Z,210
2017-08-03T08:12:38.091Z,270
2017-08-03T08:13:37.818Z,370
2017-08-03T08:14:38.565Z,415
2017-08-03T08:15:38.299Z,455
2017-08-03T08:16:38.313Z,425
2017-08-03T08:17:38.059Z,405
2017-08-03T08:18:39.128Z,395
2017-08-03T08:19:39.166Z,375
2017-08-03T08:20:38.588Z,350
2017-08-03T08:21:39.657Z,335
2017-08-03T08:22:39.376Z,335
2017-08-03T08:23:39.737Z,340
2017-08-03T08:24:39.462Z,345
2017-08-03T08:25:40.192Z,345
2017-08-03T08:26:40.258Z,355
2017-08-03T08:27:39.984Z,355
2017-08-03T08:28:40.006Z,330
2017-08-03T08:29:40.030Z,285
2017-08-03T08:30:40.397Z,230
2017-08-03T08:31:40.097Z,185
2017-08-03T08:32:40.460Z,165
2017-08-03T08:33:40.500Z,165
2017-08-03T08:34:40.541Z,165
2017-08-03T08:35:40.584Z,170
2017-08-03T08:36:40.622Z,170
2017-08-03T08:37:40.651Z,170
2017-08-03T08:38:40.695Z,160
2017-08-03T08:39:40.738Z,155
2017-08-03T08:40:40.451Z,155
2017-08-03T08:41:40.507Z,155
2017-08-03T08:42:40.848Z,160
2017-08-03T08:43:40.581Z,175
2017-08-03T08:44:40.941Z,180
2017-08-03T08:45:40.634Z,185
2017-08-03T08:46:41.064Z,195
2017-08-03T08:47:41.074Z,225
2017-08-03T08:48:41.136Z,265
2017-08-03T08:49:41.163Z,310
2017-08-03T08:50:41.216Z,355
2017-08-03T08:51:41.246Z,390
2017-08-03T08:52:41.266Z,415
2017-08-03T08:53:41.632Z,410
2017-08-03T08:54:41.097Z,390
2017-08-03T08:55:41.851Z,355
2017-08-03T08:56:42.185Z,330
2017-08-03T08:57:41.941Z,300
2017-08-03T08:58:42.693Z,275
2017-08-03T08:59:42.710Z,265
2017-08-03T09:00:42.742Z,250
2017-08-03T09:01:42.810Z,230
2017-08-03T09:02:42.828Z,220
2017-08-03T09:03:42.221Z,220
2017-08-03T09:04:42.953Z,225
2017-08-03T09:05:42.782Z,245
2017-08-03T09:06:42.711Z,255
2017-08-03T09:07:42.416Z,260
2017-08-03T09:08:42.793Z,260
2017-08-03T09:09:43.140Z,265
2017-08-03T09:10:43.193Z,265
2017-08-03T09:11:43.207Z,260
2017-08-03T09:12:42.939Z,260
2017-08-03T09:13:43.290Z,250
2017-08-03T09:14:43.328Z,235
2017-08-03T09:15:42.735Z,230
2017-08-03T09:16:43.561Z,225
2017-08-03T09:17:44.284Z,220
2017-08-03T09:18:44.323Z,210
2017-08-03T09:19:44.058Z,210
2017-08-03T09:20:44.092Z,215
2017-08-03T09:21:44.218Z,220
2017-08-03T09:22:44.209Z,225
2017-08-03T09:23:44.517Z,225
2017-08-03T09:24:44.240Z,230
2017-08-03T09:25:44.594Z,235
2017-08-03T09:26:44.344Z,230
2017-08-03T09:27:44.338Z,245
2017-08-03T09:28:44.982Z,265
2017-08-03T09:29:45.311Z,305
2017-08-03T09:30:45.209Z,330
2017-08-03T09:31:45.265Z,350
2017-08-03T09:32:45.315Z,365
2017-08-03T09:33:45.335Z,375
2017-08-03T09:34:45.654Z,370
2017-08-03T09:35:45.101Z,365
2017-08-03T09:36:45.275Z,360
2017-08-03T09:37:45.568Z,350
2017-08-03T09:38:45.886Z,340
2017-08-03T09:39:45.023Z,340
2017-08-03T09:40:45.760Z,345
2017-08-03T09:41:46.052Z,345
2017-08-03T09:42:45.865Z,345
2017-08-03T09:43:45.864Z,330
2017-08-03T09:44:45.595Z,310
2017-08-03T09:45:46.323Z,295
2017-08-03T09:46:46.382Z,290
2017-08-03T09:47:46.089Z,285
2017-08-03T09:48:46.840Z,275
2017-08-03T09:49:46.575Z,270
2017-08-03T09:50:46.277Z,275
2017-08-03T09:51:46.785Z,280
2017-08-03T09:52:47.876Z,280
2017-08-03T09:53:47.590Z,285
2017-08-03T09:54:47.994Z,290
2017-08-03T09:55:47.957Z,300
2017-08-03T09:56:47.621Z,310
2017-08-03T09:57:47.734Z,320
2017-08-03T09:58:48.074Z,325
2017-08-03T09:59:47.816Z,330
2017-08-03T10:00:47.844Z,335
2017-08-03T10:01:48.387Z,335
2017-08-03T10:02:48.013Z,345
2017-08-03T10:03:48.024Z,360
2017-08-03T10:04:48.444Z,380
2017-08-03T10:05:48.295Z,400
2017-08-03T10:06:48.842Z,410
2017-08-03T10:07:48.872Z,410
2017-08-03T10:08:48.957Z,415
2017-08-03T10:09:48.651Z,420
2017-08-03T10:10:48.378Z,425
2017-08-03T10:11:49.108Z,420
2017-08-03T10:12:48.839Z,405
2017-08-03T10:13:49.404Z,385
2017-08-03T10:14:49.298Z,355
2017-08-03T10:15:49.654Z,335
2017-08-03T10:16:49.096Z,325
2017-08-03T10:17:49.901Z,310
2017-08-03T10:18:49.865Z,310
2017-08-03T10:19:50.052Z,315
2017-08-03T10:20:50.800Z,335
2017-08-03T10:21:50.516Z,355
2017-08-03T10:22:51.579Z,365
2017-08-03T10:23:51.304Z,380
2017-08-03T10:24:51.389Z,400
2017-08-03T10:25:52.144Z,425
2017-08-03T10:26:52.190Z,485
2017-08-03T10:27:52.526Z,475
2017-08-03T10:28:52.259Z,465
2017-08-03T10:29:52.329Z,445
2017-08-03T10:30:52.729Z,450
2017-08-03T10:31:52.153Z,475
2017-08-03T10:32:52.595Z,575
2017-08-03T10:33:53.424Z,715
2017-08-03T10:34:53.716Z,600
2017-08-03T10:35:53.758Z,640
2017-08-03T10:36:53.789Z,885
2017-08-03T10:37:53.831Z,1120
2017-08-03T10:38:53.590Z,950
2017-08-03T10:39:53.696Z,995
2017-08-03T10:40:54.151Z,1100
2017-08-03T10:41:54.210Z,970
2017-08-03T10:42:54.537Z,980
2017-08-03T10:43:54.581Z,910
2017-08-03T10:44:54.291Z,810
2017-08-03T10:45:55.030Z,765
2017-08-03T10:46:55.075Z,705
2017-08-03T10:47:54.781Z,655
2017-08-03T10:48:54.577Z,565
2017-08-03T10:49:55.377Z,485
2017-08-03T10:50:55.796Z,425
2017-08-03T10:51:55.196Z,390
2017-08-03T10:52:55.647Z,365
2017-08-03T10:53:56.715Z,345
2017-08-03T10:54:56.152Z,340
2017-08-03T10:55:56.578Z,330
2017-08-03T10:56:56.995Z,330
2017-08-03T10:57:57.055Z,325
2017-08-03T10:58:56.849Z,315
2017-08-03T10:59:57.529Z,310
2017-08-03T11:00:57.568Z,330
2017-08-03T11:01:57.293Z,325
2017-08-03T11:02:57.766Z,325
2017-08-03T11:03:57.397Z,320
2017-08-03T11:04:57.840Z,320
2017-08-03T11:05:58.128Z,325
2017-08-03T11:06:57.318Z,325
2017-08-03T11:07:58.270Z,360
2017-08-03T11:08:57.997Z,415
2017-08-03T11:09:58.411Z,500
2017-08-03T11:10:58.166Z,540
2017-08-03T11:11:58.923Z,550
2017-08-03T11:12:58.599Z,625
2017-08-03T11:13:58.811Z,640
2017-08-03T11:14:59.263Z,590
2017-08-03T11:15:59.742Z,545
2017-08-03T11:16:59.406Z,530
2017-08-03T11:18:00.521Z,555
2017-08-03T11:19:00.226Z,535
2017-08-03T11:20:00.269Z,480
2017-08-03T11:21:01.019Z,450
2017-08-03T11:22:01.043Z,495
2017-08-03T11:23:00.812Z,475
2017-08-03T11:24:01.149Z,410
2017-08-03T11:25:00.871Z,380
2017-08-03T11:26:00.907Z,370
2017-08-03T11:27:00.974Z,370
2017-08-03T11:28:00.965Z,390
2017-08-03T11:29:00.805Z,420
2017-08-03T11:30:01.061Z,445
2017-08-03T11:31:00.775Z,460
2017-08-03T11:32:00.887Z,480
2017-08-03T11:33:01.625Z,505
2017-08-03T11:34:02.219Z,495
2017-08-03T11:35:01.716Z,485
2017-08-03T11:36:02.090Z,475
2017-08-03T11:37:01.164Z,520
2017-08-03T11:38:02.136Z,560
2017-08-03T11:39:01.543Z,615
2017-08-03T11:40:01.967Z,620
2017-08-03T11:41:02.393Z,570
2017-08-03T11:42:02.415Z,515
2017-08-03T11:43:01.520Z,490
2017-08-03T11:44:02.278Z,530
2017-08-03T11:45:01.993Z,570
2017-08-03T11:46:01.467Z,565
2017-08-03T11:47:02.484Z,520
2017-08-03T11:48:02.811Z,465
2017-08-03T11:49:02.543Z,455
2017-08-03T11:50:03.394Z,470
2017-08-03T11:51:03.048Z,470
2017-08-03T11:52:03.361Z,515
2017-08-03T11:53:03.397Z,575
2017-08-03T11:54:03.444Z,615
2017-08-03T11:55:03.489Z,640
2017-08-03T11:56:04.104Z,605
2017-08-03T11:57:03.546Z,530
2017-08-03T11:58:02.649Z,555
2017-08-03T11:59:03.712Z,665
2017-08-03T12:00:04.057Z,735
2017-08-03T12:01:03.888Z,740
2017-08-03T12:02:03.526Z,640
2017-08-03T12:03:03.926Z,510
2017-08-03T12:04:03.613Z,475
2017-08-03T12:05:03.717Z,430
2017-08-03T12:06:04.171Z,425
2017-08-03T12:07:04.113Z,505
2017-08-03T12:08:04.147Z,595
2017-08-03T12:09:04.270Z,640
2017-08-03T12:10:03.912Z,645
2017-08-03T12:11:04.832Z,655
2017-08-03T12:12:04.399Z,675
2017-08-03T12:13:05.120Z,655
2017-08-03T12:14:04.312Z,585
2017-08-03T12:15:04.947Z,465
2017-08-03T12:16:05.684Z,535
2017-08-03T12:17:05.393Z,580
2017-08-03T12:18:05.760Z,615
2017-08-03T12:19:05.834Z,625
2017-08-03T12:20:05.316Z,645
2017-08-03T12:21:05.259Z,635
2017-08-03T12:22:06.324Z,605
2017-08-03T12:23:06.367Z,535
2017-08-03T12:24:06.420Z,505
2017-08-03T12:25:06.539Z,490
2017-08-03T12:26:06.166Z,510
2017-08-03T12:27:05.992Z,540
2017-08-03T12:28:06.842Z,530
2017-08-03T12:29:07.175Z,490
2017-08-03T12:30:06.970Z,510
2017-08-03T12:31:06.673Z,575
2017-08-03T12:32:06.805Z,625
2017-08-03T12:33:07.898Z,595
2017-08-03T12:34:07.589Z,530
2017-08-03T12:35:07.783Z,500
2017-08-03T12:36:07.024Z,490
2017-08-03T12:37:08.028Z,510
2017-08-03T12:38:08.073Z,515
2017-08-03T12:39:08.107Z,500
2017-08-03T12:40:08.310Z,485
2017-08-03T12:41:07.257Z,445
2017-08-03T12:42:07.916Z,385
2017-08-03T12:43:07.956Z,325
2017-08-03T12:44:07.689Z,310
2017-08-03T12:45:08.750Z,405
2017-08-03T12:46:08.185Z,460
2017-08-03T12:47:08.987Z,460
2017-08-03T12:48:09.442Z,430
2017-08-03T12:49:09.445Z,440
2017-08-03T12:50:09.526Z,525
2017-08-03T12:51:09.510Z,630
2017-08-03T12:52:09.309Z,665
2017-08-03T12:53:10.389Z,670
2017-08-03T12:54:10.114Z,690
2017-08-03T12:55:10.513Z,705
2017-08-03T12:56:09.546Z,630
2017-08-03T12:57:10.212Z,550
2017-08-03T12:58:10.570Z,485
2017-08-03T12:59:10.619Z,450
2017-08-03T13:00:10.919Z,470
2017-08-03T13:01:10.382Z,470
2017-08-03T13:02:10.587Z,495
2017-08-03T13:03:10.481Z,565
2017-08-03T13:04:10.817Z,585
2017-08-03T13:05:10.308Z,510
2017-08-03T13:06:11.106Z,435
2017-08-03T13:07:11.106Z,370
2017-08-03T13:08:11.153Z,380
2017-08-03T13:09:11.159Z,395
2017-08-03T13:10:11.532Z,370
2017-08-03T13:11:10.939Z,355
2017-08-03T13:12:11.633Z,380
2017-08-03T13:13:11.657Z,390
2017-08-03T13:14:11.706Z,475
2017-08-03T13:15:11.801Z,550
2017-08-03T13:16:11.465Z,545
2017-08-03T13:17:11.828Z,480
2017-08-03T13:18:11.233Z,450
2017-08-03T13:19:12.001Z,480
2017-08-03T13:20:12.356Z,505
2017-08-03T13:21:12.526Z,510
2017-08-03T13:22:12.416Z,525
2017-08-03T13:23:12.165Z,520
2017-08-03T13:24:12.504Z,545
2017-08-03T13:25:12.606Z,535
2017-08-03T13:26:11.936Z,545
2017-08-03T13:27:12.688Z,540
2017-08-03T13:28:12.729Z,545
2017-08-03T13:29:12.464Z,555
2017-08-03T13:30:12.917Z,515
2017-08-03T13:31:13.019Z,500
2017-08-03T13:32:13.359Z,495
2017-08-03T13:33:13.358Z,465
2017-08-03T13:34:13.404Z,460
2017-08-03T13:35:13.398Z,505
2017-08-03T13:36:13.211Z,535
2017-08-03T13:37:13.540Z,520
2017-08-03T13:38:13.294Z,515
2017-08-03T13:39:13.269Z,470
2017-08-03T13:40:13.353Z,395
2017-08-03T13:41:13.334Z,325
2017-08-03T13:42:13.052Z,290
2017-08-03T13:43:13.806Z,295
2017-08-03T13:44:14.170Z,280
2017-08-03T13:45:14.253Z,250
2017-08-03T13:46:14.252Z,220
2017-08-03T13:47:14.301Z,195
2017-08-03T13:48:13.989Z,185
2017-08-03T13:49:14.418Z,190
2017-08-03T13:50:14.453Z,185
2017-08-03T13:51:14.185Z,165
2017-08-03T13:52:14.622Z,160
2017-08-03T13:53:15.351Z,165
2017-08-03T13:54:15.434Z,155
2017-08-03T13:55:15.114Z,150
2017-08-03T13:56:15.469Z,155
2017-08-03T13:57:15.514Z,190
2017-08-03T13:58:14.925Z,275
2017-08-03T13:59:15.705Z,305
2017-08-03T14:00:15.735Z,315
2017-08-03T14:01:15.774Z,325
2017-08-03T14:02:15.879Z,370
2017-08-03T14:03:15.865Z,340
2017-08-03T14:04:15.889Z,270
2017-08-03T14:05:15.933Z,255